Time,TemperatureF,DewpointF,PressureIn,WindDirection,WindDirectionDegrees,WindSpeedMPH,WindSpeedGustMPH,Humidity,HourlyPrecipIn,Conditions,Clouds,dailyrainin,SoftwareType,DateUTC
2013-01-12 00:00:00,34.7,27.3,29.23,ENE,68,0.0,0.0,74,0.00,,---,0.00,VWS V14.01,2013-01-12 05:00:00,
2013-01-12 00:01:00,34.5,26.8,29.23,ENE,68,2.2,2.2,73,0.00,,---,0.00,VWS V14.01,2013-01-12 05:01:00,
2013-01-12 00:03:00,34.3,26.6,29.23,NNE,22,0.0,1.6,73,0.00,,---,0.00,VWS V14.01,2013-01-12 05:03:00,
2013-01-12 00:08:00,34.5,26.8,29.20,NNW,338,0.0,0.0,73,0.00,,---,0.00,VWS V14.01,2013-01-12 05:08:00,
2013-01-12 00:13:00,34.7,27.0,29.20,SSW,202,0.0,1.1,73,0.00,,---,0.00,VWS V14.01,2013-01-12 05:13:00,
2013-01-12 00:18:00,34.7,27.0,29.20,WNW,292,2.0,2.0,73,0.00,,---,0.00,VWS V14.01,2013-01-12 05:18:00,
2013-01-12 00:23:00,34.9,27.5,29.23,WNW,292,3.4,3.4,74,0.00,,---,0.00,VWS V14.01,2013-01-12 05:23:00,
2013-01-12 00:28:00,34.9,27.1,29.23,WNW,292,3.4,3.4,73,0.00,,---,0.00,VWS V14.01,2013-01-12 05:28:00,
2013-01-12 00:33:00,35.1,27.3,29.23,SSW,202,0.0,1.6,73,0.00,,---,0.00,VWS V14.01,2013-01-12 05:33:00,
2013-01-12 00:38:00,35.2,27.5,29.23,WNW,292,1.1,1.1,73,0.00,,---,0.00,VWS V14.01,2013-01-12 05:38:00,
2013-01-12 00:43:00,35.1,27.3,29.23,WNW,292,1.3,2.5,73,0.00,,---,0.00,VWS V14.01,2013-01-12 05:43:00,
2013-01-12 00:48:00,35.1,27.0,29.23,WSW,248,2.2,4.9,72,0.00,,---,0.00,VWS V14.01,2013-01-12 05:48:00,
2013-01-12 00:53:00,35.4,27.6,29.23,WNW,292,3.4,3.4,73,0.00,,---,0.00,VWS V14.01,2013-01-12 05:53:00,
2013-01-12 00:58:00,35.2,27.5,29.23,SE,135,2.9,3.1,73,0.00,,---,0.00,VWS V14.01,2013-01-12 05:58:00,
2013-01-12 01:03:00,35.2,27.5,29.23,East,90,2.0,2.0,73,0.00,,---,0.00,VWS V14.01,2013-01-12 06:03:00,
2013-01-12 01:08:00,35.2,27.5,29.23,NNW,338,0.0,0.0,73,0.00,,---,0.00,VWS V14.01,2013-01-12 06:08:00,
2013-01-12 01:13:00,35.2,27.5,29.23,WSW,248,3.6,3.6,73,0.00,,---,0.00,VWS V14.01,2013-01-12 06:13:00,
2013-01-12 01:18:00,35.2,27.5,29.23,WNW,292,0.0,0.0,73,0.00,,---,0.00,VWS V14.01,2013-01-12 06:18:00,
2013-01-12 01:23:00,35.2,27.5,29.23,NNE,22,1.3,1.3,73,0.00,,---,0.00,VWS V14.01,2013-01-12 06:23:00,
2013-01-12 01:28:00,35.2,27.5,29.23,NW,315,0.0,0.0,73,0.00,,---,0.00,VWS V14.01,2013-01-12 06:28:00,
2013-01-12 01:33:00,35.2,27.5,29.23,ESE,112,0.0,0.0,73,0.00,,---,0.00,VWS V14.01,2013-01-12 06:33:00,
2013-01-12 01:38:00,35.2,27.5,29.23,ESE,112,2.9,2.9,73,0.00,,---,0.00,VWS V14.01,2013-01-12 06:38:00,
2013-01-12 01:43:00,35.2,27.5,29.23,East,90,2.0,2.2,73,0.00,,---,0.00,VWS V14.01,2013-01-12 06:43:00,
2013-01-12 01:48:00,35.1,27.3,29.23,SSE,158,1.6,4.3,73,0.00,,---,0.00,VWS V14.01,2013-01-12 06:48:00,
2013-01-12 01:53:00,35.1,27.3,29.23,ESE,112,0.0,0.0,73,0.00,,---,0.00,VWS V14.01,2013-01-12 06:53:00,
2013-01-12 01:58:00,35.1,27.3,29.23,East,90,4.0,4.0,73,0.00,,---,0.00,VWS V14.01,2013-01-12 06:58:00,
2013-01-12 02:03:00,34.9,27.5,29.23,ENE,68,0.0,1.3,74,0.00,,---,0.00,VWS V14.01,2013-01-12 07:03:00,
2013-01-12 02:08:00,34.9,27.5,29.23,ENE,68,2.9,2.9,74,0.00,,---,0.00,VWS V14.01,2013-01-12 07:08:00,
2013-01-12 02:12:00,34.9,27.5,29.23,ENE,68,2.7,2.7,74,0.00,,---,0.00,VWS V14.01,2013-01-12 07:12:00,
2013-01-12 02:17:00,34.9,27.5,29.23,East,90,1.1,1.1,74,0.00,,---,0.00,VWS V14.01,2013-01-12 07:17:00,
2013-01-12 02:22:00,34.9,27.5,29.23,ESE,112,0.0,0.0,74,0.00,,---,0.00,VWS V14.01,2013-01-12 07:22:00,
2013-01-12 02:27:00,34.9,27.5,29.23,ENE,68,1.1,1.1,74,0.00,,---,0.00,VWS V14.01,2013-01-12 07:27:00,
2013-01-12 02:32:00,34.9,27.5,29.23,ENE,68,2.5,2.5,74,0.00,,---,0.00,VWS V14.01,2013-01-12 07:32:00,
2013-01-12 02:37:00,34.7,27.6,29.23,ENE,68,0.0,0.0,75,0.00,,---,0.00,VWS V14.01,2013-01-12 07:37:00,
2013-01-12 02:42:00,34.7,27.3,29.23,ENE,68,1.3,1.3,74,0.00,,---,0.00,VWS V14.01,2013-01-12 07:42:00,
2013-01-12 02:47:00,34.7,27.3,29.23,East,90,1.6,1.6,74,0.00,,---,0.00,VWS V14.01,2013-01-12 07:47:00,
2013-01-12 02:52:00,34.9,27.8,29.23,NE,45,0.0,0.0,75,0.00,,---,0.00,VWS V14.01,2013-01-12 07:52:00,
2013-01-12 02:57:00,34.9,27.8,29.23,East,90,5.4,5.4,75,0.00,,---,0.00,VWS V14.01,2013-01-12 07:57:00,
2013-01-12 03:02:00,35.1,27.6,29.23,East,90,1.1,1.1,74,0.00,,---,0.00,VWS V14.01,2013-01-12 08:02:00,
2013-01-12 03:07:00,35.1,28.0,29.23,ESE,112,1.1,1.1,75,0.00,,---,0.00,VWS V14.01,2013-01-12 08:07:00,
2013-01-12 03:12:00,35.2,28.1,29.23,ESE,112,2.7,2.7,75,0.00,,---,0.00,VWS V14.01,2013-01-12 08:12:00,
2013-01-12 03:17:00,35.2,28.1,29.23,East,90,2.5,2.5,75,0.00,,---,0.00,VWS V14.01,2013-01-12 08:17:00,
2013-01-12 03:22:00,35.4,28.3,29.23,SSE,158,0.0,2.0,75,0.00,,---,0.00,VWS V14.01,2013-01-12 08:22:00,
2013-01-12 03:27:00,35.4,28.3,29.23,ESE,112,2.2,3.4,75,0.00,,---,0.00,VWS V14.01,2013-01-12 08:27:00,
2013-01-12 03:32:00,35.2,28.1,29.23,SE,135,2.5,2.5,75,0.00,,---,0.00,VWS V14.01,2013-01-12 08:32:00,
2013-01-12 03:37:00,35.2,28.1,29.23,WSW,248,1.6,1.6,75,0.00,,---,0.00,VWS V14.01,2013-01-12 08:37:00,
2013-01-12 03:42:00,35.1,28.0,29.23,NNE,22,0.0,2.7,75,0.00,,---,0.00,VWS V14.01,2013-01-12 08:42:00,
2013-01-12 03:47:00,35.4,28.3,29.23,ESE,112,3.4,3.4,75,0.00,,---,0.00,VWS V14.01,2013-01-12 08:47:00,
2013-01-12 03:52:00,35.4,28.3,29.23,SE,135,0.0,1.6,75,0.00,,---,0.00,VWS V14.01,2013-01-12 08:52:00,
2013-01-12 03:57:00,35.2,28.1,29.23,ESE,112,2.7,2.7,75,0.00,,---,0.00,VWS V14.01,2013-01-12 08:57:00,
2013-01-12 04:02:00,35.2,28.1,29.23,SSW,202,1.3,1.3,75,0.00,,---,0.00,VWS V14.01,2013-01-12 09:02:00,
2013-01-12 04:07:00,35.4,28.3,29.20,SSE,158,0.0,3.1,75,0.00,,---,0.00,VWS V14.01,2013-01-12 09:07:00,
2013-01-12 04:12:00,35.4,28.3,29.20,SW,225,1.6,3.6,75,0.00,,---,0.00,VWS V14.01,2013-01-12 09:12:00,
2013-01-12 04:17:00,35.2,28.1,29.20,WSW,248,0.0,2.2,75,0.00,,---,0.00,VWS V14.01,2013-01-12 09:17:00,
2013-01-12 04:22:00,35.6,28.5,29.20,ESE,112,1.3,2.5,75,0.00,,---,0.00,VWS V14.01,2013-01-12 09:22:00,
2013-01-12 04:27:00,35.4,28.3,29.20,East,90,1.3,4.0,75,0.00,,---,0.00,VWS V14.01,2013-01-12 09:27:00,
2013-01-12 04:32:00,35.2,28.1,29.20,ESE,112,0.0,0.0,75,0.00,,---,0.00,VWS V14.01,2013-01-12 09:32:00,
2013-01-12 04:37:00,35.4,28.3,29.23,NNW,338,2.7,2.7,75,0.00,,---,0.00,VWS V14.01,2013-01-12 09:37:00,
2013-01-12 04:42:00,35.4,28.3,29.23,NNE,22,2.7,2.7,75,0.00,,---,0.00,VWS V14.01,2013-01-12 09:42:00,
2013-01-12 04:47:00,35.4,28.3,29.23,WSW,248,2.0,2.0,75,0.00,,---,0.00,VWS V14.01,2013-01-12 09:47:00,
2013-01-12 04:52:00,35.4,28.3,29.23,WNW,292,1.3,3.1,75,0.00,,---,0.00,VWS V14.01,2013-01-12 09:52:00,
2013-01-12 04:57:00,35.4,28.3,29.23,NNW,338,1.3,1.3,75,0.00,,---,0.00,VWS V14.01,2013-01-12 09:57:00,
2013-01-12 05:02:00,35.2,28.1,29.23,SSE,158,2.2,2.2,75,0.00,,---,0.00,VWS V14.01,2013-01-12 10:02:00,
2013-01-12 05:07:00,35.2,28.1,29.23,ESE,112,1.3,1.3,75,0.00,,---,0.00,VWS V14.01,2013-01-12 10:07:00,
2013-01-12 05:12:00,35.2,28.1,29.23,South,180,0.0,0.0,75,0.00,,---,0.00,VWS V14.01,2013-01-12 10:12:00,
2013-01-12 05:17:00,35.2,28.1,29.23,East,90,2.2,2.2,75,0.00,,---,0.00,VWS V14.01,2013-01-12 10:17:00,
2013-01-12 05:22:00,35.4,28.3,29.23,SSW,202,2.2,2.2,75,0.00,,---,0.00,VWS V14.01,2013-01-12 10:22:00,
2013-01-12 05:27:00,35.6,28.5,29.23,West,270,0.0,5.4,75,0.00,,---,0.00,VWS V14.01,2013-01-12 10:27:00,
2013-01-12 05:32:00,35.6,28.5,29.23,NW,315,1.3,2.7,75,0.00,,---,0.00,VWS V14.01,2013-01-12 10:32:00,
2013-01-12 05:37:00,35.6,28.5,29.23,NNW,338,2.2,2.2,75,0.00,,---,0.00,VWS V14.01,2013-01-12 10:37:00,
2013-01-12 05:42:00,35.6,28.5,29.23,WNW,292,3.4,3.6,75,0.00,,---,0.00,VWS V14.01,2013-01-12 10:42:00,
2013-01-12 05:47:00,35.6,28.5,29.23,WSW,248,2.0,2.0,75,0.00,,---,0.00,VWS V14.01,2013-01-12 10:47:00,
2013-01-12 05:52:00,35.6,28.5,29.23,WNW,292,0.0,0.0,75,0.00,,---,0.00,VWS V14.01,2013-01-12 10:52:00,
2013-01-12 05:57:00,35.4,28.3,29.23,NNW,338,2.0,2.0,75,0.00,,---,0.00,VWS V14.01,2013-01-12 10:57:00,
2013-01-12 06:02:00,35.1,28.0,29.23,NW,315,0.0,0.0,75,0.00,,---,0.00,VWS V14.01,2013-01-12 11:02:00,
2013-01-12 06:07:00,35.4,28.3,29.26,NW,315,0.0,0.0,75,0.00,,---,0.00,VWS V14.01,2013-01-12 11:07:00,
2013-01-12 06:12:00,35.1,28.0,29.26,NW,315,0.0,0.0,75,0.00,,---,0.00,VWS V14.01,2013-01-12 11:12:00,
2013-01-12 06:17:00,35.1,28.0,29.26,NNE,22,0.0,0.0,75,0.00,,---,0.00,VWS V14.01,2013-01-12 11:17:00,
2013-01-12 06:22:00,35.1,28.0,29.23,ENE,68,1.1,1.1,75,0.00,,---,0.00,VWS V14.01,2013-01-12 11:22:00,
2013-01-12 06:27:00,35.4,28.3,29.23,East,90,2.9,2.9,75,0.00,,---,0.00,VWS V14.01,2013-01-12 11:27:00,
2013-01-12 06:32:00,35.4,28.6,29.23,ENE,68,2.2,2.2,76,0.00,,---,0.00,VWS V14.01,2013-01-12 11:32:00,
2013-01-12 06:37:00,35.2,28.5,29.23,East,90,2.2,2.2,76,0.00,,---,0.00,VWS V14.01,2013-01-12 11:37:00,
2013-01-12 06:42:00,35.4,28.6,29.23,ENE,68,4.7,4.7,76,0.00,,---,0.00,VWS V14.01,2013-01-12 11:42:00,
2013-01-12 06:47:00,35.1,28.3,29.23,NNW,338,4.0,4.0,76,0.00,,---,0.00,VWS V14.01,2013-01-12 11:47:00,
2013-01-12 06:52:00,34.9,28.1,29.23,NNW,338,0.0,0.0,76,0.00,,---,0.00,VWS V14.01,2013-01-12 11:52:00,
2013-01-12 06:57:00,35.1,28.6,29.23,ENE,68,1.1,1.1,77,0.00,,---,0.00,VWS V14.01,2013-01-12 11:57:00,
2013-01-12 07:02:00,35.4,28.9,29.23,SE,135,2.7,2.7,77,0.00,,---,0.00,VWS V14.01,2013-01-12 12:02:00,
2013-01-12 07:07:00,35.4,28.9,29.23,SE,135,0.9,3.1,77,0.00,,---,0.00,VWS V14.01,2013-01-12 12:07:00,
2013-01-12 07:12:00,35.4,28.9,29.23,SE,135,4.3,4.3,77,0.00,,---,0.00,VWS V14.01,2013-01-12 12:12:00,
2013-01-12 07:17:00,35.4,28.9,29.23,ESE,112,3.1,3.4,77,0.00,,---,0.00,VWS V14.01,2013-01-12 12:17:00,
2013-01-12 07:22:00,35.6,29.1,29.26,East,90,2.9,2.9,77,0.00,,---,0.00,VWS V14.01,2013-01-12 12:22:00,
2013-01-12 07:27:00,35.4,28.9,29.26,ENE,68,2.9,2.9,77,0.00,,---,0.00,VWS V14.01,2013-01-12 12:27:00,
2013-01-12 07:32:00,35.6,29.1,29.26,East,90,2.2,2.7,77,0.00,,---,0.00,VWS V14.01,2013-01-12 12:32:00,
2013-01-12 07:37:00,35.6,29.1,29.26,NE,45,3.4,3.4,77,0.00,,---,0.00,VWS V14.01,2013-01-12 12:37:00,
2013-01-12 07:42:00,35.4,28.9,29.26,ENE,68,2.0,2.0,77,0.00,,---,0.00,VWS V14.01,2013-01-12 12:42:00,
2013-01-12 07:47:00,35.6,29.1,29.26,ENE,68,0.0,0.0,77,0.00,,---,0.00,VWS V14.01,2013-01-12 12:47:00,
2013-01-12 07:52:00,35.6,29.1,29.26,NE,45,0.0,0.0,77,0.00,,---,0.00,VWS V14.01,2013-01-12 12:52:00,
2013-01-12 07:57:00,35.6,29.1,29.26,ENE,68,2.5,2.7,77,0.00,,---,0.00,VWS V14.01,2013-01-12 12:57:00,
2013-01-12 08:02:00,35.4,29.2,29.26,East,90,2.7,2.7,78,0.00,,---,0.00,VWS V14.01,2013-01-12 13:02:00,
2013-01-12 08:07:00,35.4,29.2,29.26,NE,45,3.1,3.1,78,0.00,,---,0.00,VWS V14.01,2013-01-12 13:07:00,
2013-01-12 08:12:00,35.6,29.1,29.26,ENE,68,2.5,2.7,77,0.00,,---,0.00,VWS V14.01,2013-01-12 13:12:00,
2013-01-12 08:17:00,35.6,29.1,29.26,East,90,3.4,3.4,77,0.00,,---,0.00,VWS V14.01,2013-01-12 13:17:00,
2013-01-12 08:21:00,35.4,29.2,29.26,ESE,112,0.0,0.0,78,0.00,,---,0.00,VWS V14.01,2013-01-12 13:21:00,
2013-01-12 08:26:00,35.6,29.1,29.26,East,90,0.0,0.0,77,0.00,,---,0.00,VWS V14.01,2013-01-12 13:26:00,
2013-01-12 08:31:00,35.6,29.4,29.26,East,90,2.9,2.9,78,0.00,,---,0.00,VWS V14.01,2013-01-12 13:31:00,
2013-01-12 08:36:00,35.6,29.4,29.26,ENE,68,3.1,3.1,78,0.00,,---,0.00,VWS V14.01,2013-01-12 13:36:00,
2013-01-12 08:41:00,35.6,29.4,29.26,East,90,1.3,1.3,78,0.00,,---,0.00,VWS V14.01,2013-01-12 13:41:00,
2013-01-12 08:46:00,35.6,29.4,29.26,ESE,112,1.6,1.6,78,0.00,,---,0.00,VWS V14.01,2013-01-12 13:46:00,
2013-01-12 08:51:00,36.1,30.0,29.26,ENE,68,2.2,2.2,78,0.00,,---,0.00,VWS V14.01,2013-01-12 13:51:00,
2013-01-12 08:56:00,35.8,29.6,29.26,ESE,112,2.9,2.9,78,0.00,,---,0.00,VWS V14.01,2013-01-12 13:56:00,
2013-01-12 09:01:00,36.0,29.5,29.26,SSE,158,3.1,3.1,77,0.00,,---,0.00,VWS V14.01,2013-01-12 14:01:00,
2013-01-12 09:06:00,36.1,29.6,29.26,ENE,68,1.3,1.3,77,0.00,,---,0.00,VWS V14.01,2013-01-12 14:06:00,
2013-01-12 09:11:00,36.3,29.8,29.26,ESE,112,2.7,2.7,77,0.00,,---,0.00,VWS V14.01,2013-01-12 14:11:00,
2013-01-12 09:16:00,36.5,30.0,29.26,ESE,112,3.4,3.4,77,0.00,,---,0.00,VWS V14.01,2013-01-12 14:16:00,
2013-01-12 09:21:00,36.5,30.0,29.26,ESE,112,2.7,3.1,77,0.00,,---,0.00,VWS V14.01,2013-01-12 14:21:00,
2013-01-12 09:26:00,36.7,30.2,29.26,ESE,112,3.6,3.6,77,0.00,,---,0.00,VWS V14.01,2013-01-12 14:26:00,
2013-01-12 09:31:00,36.9,30.3,29.26,SE,135,2.5,2.5,77,0.00,,---,0.00,VWS V14.01,2013-01-12 14:31:00,
2013-01-12 09:36:00,36.9,30.3,29.26,ESE,112,4.0,4.0,77,0.00,,---,0.00,VWS V14.01,2013-01-12 14:36:00,
2013-01-12 09:41:00,37.0,30.5,29.26,ESE,112,2.5,2.5,77,0.00,,---,0.00,VWS V14.01,2013-01-12 14:41:00,
2013-01-12 09:46:00,37.0,30.5,29.26,East,90,1.1,1.1,77,0.00,,---,0.00,VWS V14.01,2013-01-12 14:46:00,
2013-01-12 09:51:00,37.0,30.5,29.26,East,90,3.1,3.1,77,0.00,,---,0.00,VWS V14.01,2013-01-12 14:51:00,
2013-01-12 09:56:00,37.2,30.7,29.26,SE,135,2.9,2.9,77,0.00,,---,0.00,VWS V14.01,2013-01-12 14:56:00,
2013-01-12 10:01:00,37.2,30.7,29.26,ESE,112,3.8,3.8,77,0.00,,---,0.00,VWS V14.01,2013-01-12 15:01:00,
2013-01-12 10:06:00,37.9,31.1,29.23,SE,135,3.8,3.8,76,0.00,,---,0.00,VWS V14.01,2013-01-12 15:06:00,
2013-01-12 10:11:00,38.1,31.2,29.23,ESE,112,4.0,4.0,76,0.00,,---,0.00,VWS V14.01,2013-01-12 15:11:00,
2013-01-12 10:16:00,38.3,31.4,29.23,ESE,112,3.6,3.6,76,0.00,,---,0.00,VWS V14.01,2013-01-12 15:16:00,
2013-01-12 10:21:00,38.8,31.6,29.23,SE,135,3.1,3.1,75,0.00,,---,0.00,VWS V14.01,2013-01-12 15:21:00,
2013-01-12 10:26:00,39.7,32.5,29.23,SSE,158,4.0,4.0,75,0.00,,---,0.00,VWS V14.01,2013-01-12 15:26:00,
2013-01-12 10:31:00,39.7,32.1,29.23,East,90,3.1,3.1,74,0.00,,---,0.00,VWS V14.01,2013-01-12 15:31:00,
2013-01-12 10:36:00,40.1,32.5,29.23,SE,135,3.8,3.8,74,0.00,,---,0.00,VWS V14.01,2013-01-12 15:36:00,
2013-01-12 10:41:00,40.3,32.3,29.23,ESE,112,3.6,3.6,73,0.00,,---,0.00,VWS V14.01,2013-01-12 15:41:00,
2013-01-12 10:46:00,40.5,32.5,29.23,ESE,112,6.5,6.5,73,0.00,,---,0.00,VWS V14.01,2013-01-12 15:46:00,
2013-01-12 10:51:00,39.9,31.6,29.23,East,90,3.4,4.0,72,0.04,,---,0.04,VWS V14.01,2013-01-12 15:51:00,
2013-01-12 10:56:00,39.9,31.6,29.23,ESE,112,3.6,5.4,72,0.04,,---,0.04,VWS V14.01,2013-01-12 15:56:00,
2013-01-12 11:01:00,39.7,31.5,29.23,ESE,112,3.4,3.4,72,0.04,,---,0.04,VWS V14.01,2013-01-12 16:01:00,
2013-01-12 11:06:00,39.9,31.6,29.23,ESE,112,2.9,3.1,72,0.04,,---,0.04,VWS V14.01,2013-01-12 16:06:00,
2013-01-12 11:11:00,40.1,31.8,29.23,ESE,112,3.6,3.6,72,0.04,,---,0.04,VWS V14.01,2013-01-12 16:11:00,
2013-01-12 11:16:00,40.3,32.0,29.23,SE,135,0.0,2.0,72,0.04,,---,0.04,VWS V14.01,2013-01-12 16:16:00,
2013-01-12 11:21:00,40.3,32.0,29.20,ESE,112,3.6,3.6,72,0.04,,---,0.04,VWS V14.01,2013-01-12 16:21:00,
2013-01-12 11:26:00,41.5,32.8,29.20,East,90,3.1,3.4,71,0.04,,---,0.04,VWS V14.01,2013-01-12 16:26:00,
2013-01-12 11:31:00,41.4,32.3,29.20,ESE,112,3.1,3.1,70,0.04,,---,0.04,VWS V14.01,2013-01-12 16:31:00,
2013-01-12 11:36:00,41.5,32.5,29.20,SE,135,2.7,2.7,70,0.04,,---,0.04,VWS V14.01,2013-01-12 16:36:00,
2013-01-12 11:41:00,41.5,32.5,29.20,ENE,68,0.0,1.3,70,0.04,,---,0.04,VWS V14.01,2013-01-12 16:41:00,
2013-01-12 11:46:00,41.5,32.5,29.20,ESE,112,3.6,3.6,70,0.04,,---,0.04,VWS V14.01,2013-01-12 16:46:00,
2013-01-12 11:51:00,41.5,32.1,29.20,SE,135,2.7,3.8,69,0.04,,---,0.04,VWS V14.01,2013-01-12 16:51:00,
2013-01-12 11:56:00,41.7,32.3,29.20,ESE,112,2.0,2.0,69,0.00,,---,0.04,VWS V14.01,2013-01-12 16:56:00,
2013-01-12 12:01:00,41.5,32.1,29.20,SE,135,2.9,2.9,69,0.00,,---,0.04,VWS V14.01,2013-01-12 17:01:00,
2013-01-12 12:06:00,41.2,31.8,29.20,ESE,112,0.0,0.0,69,0.00,,---,0.04,VWS V14.01,2013-01-12 17:06:00,
2013-01-12 12:11:00,41.5,32.1,29.20,SE,135,0.0,0.0,69,0.00,,---,0.04,VWS V14.01,2013-01-12 17:11:00,
2013-01-12 12:16:00,41.4,32.0,29.20,ESE,112,3.8,3.8,69,0.00,,---,0.04,VWS V14.01,2013-01-12 17:16:00,
2013-01-12 12:21:00,41.7,32.3,29.17,ENE,68,1.1,3.4,69,0.00,,---,0.04,VWS V14.01,2013-01-12 17:21:00,
2013-01-12 12:26:00,41.4,31.6,29.17,ENE,68,3.6,3.6,68,0.00,,---,0.04,VWS V14.01,2013-01-12 17:26:00,
2013-01-12 12:31:00,41.2,31.8,29.17,East,90,0.0,0.0,69,0.00,,---,0.04,VWS V14.01,2013-01-12 17:31:00,
2013-01-12 12:36:00,41.2,31.8,29.17,ESE,112,2.7,2.7,69,0.00,,---,0.04,VWS V14.01,2013-01-12 17:36:00,
2013-01-12 12:41:00,41.4,32.0,29.17,South,180,1.1,2.5,69,0.00,,---,0.04,VWS V14.01,2013-01-12 17:41:00,
2013-01-12 12:46:00,41.4,32.0,29.17,SE,135,2.9,5.4,69,0.00,,---,0.04,VWS V14.01,2013-01-12 17:46:00,
2013-01-12 12:51:00,41.2,31.8,29.17,South,180,1.1,1.1,69,0.00,,---,0.04,VWS V14.01,2013-01-12 17:51:00,
2013-01-12 12:56:00,41.2,31.8,29.17,SSE,158,2.0,2.0,69,0.00,,---,0.04,VWS V14.01,2013-01-12 17:56:00,
2013-01-12 13:01:00,41.4,32.0,29.17,ESE,112,2.7,2.9,69,0.00,,---,0.04,VWS V14.01,2013-01-12 18:01:00,
2013-01-12 13:06:00,41.4,32.0,29.17,ESE,112,3.1,3.1,69,0.00,,---,0.04,VWS V14.01,2013-01-12 18:06:00,
2013-01-12 13:11:00,41.2,31.8,29.17,SE,135,2.0,3.1,69,0.00,,---,0.04,VWS V14.01,2013-01-12 18:11:00,
2013-01-12 13:16:00,41.0,31.6,29.17,ESE,112,2.5,4.9,69,0.00,,---,0.04,VWS V14.01,2013-01-12 18:16:00,
2013-01-12 13:21:00,41.0,31.6,29.17,ESE,112,3.6,3.6,69,0.00,,---,0.04,VWS V14.01,2013-01-12 18:21:00,
2013-01-12 13:26:00,41.2,31.8,29.17,ESE,112,3.4,3.4,69,0.00,,---,0.04,VWS V14.01,2013-01-12 18:26:00,
2013-01-12 13:31:00,41.4,32.0,29.17,ESE,112,3.8,3.8,69,0.00,,---,0.04,VWS V14.01,2013-01-12 18:31:00,
2013-01-12 13:36:00,41.5,32.1,29.17,SE,135,1.1,1.3,69,0.00,,---,0.04,VWS V14.01,2013-01-12 18:36:00,
2013-01-12 13:41:00,41.7,32.3,29.17,ESE,112,4.9,4.9,69,0.00,,---,0.04,VWS V14.01,2013-01-12 18:41:00,
2013-01-12 13:46:00,41.9,32.5,29.17,East,90,1.6,1.6,69,0.00,,---,0.04,VWS V14.01,2013-01-12 18:46:00,
2013-01-12 13:51:00,42.3,32.8,29.17,ESE,112,2.2,2.7,69,0.00,,---,0.04,VWS V14.01,2013-01-12 18:51:00,
2013-01-12 13:56:00,42.1,32.7,29.17,ESE,112,2.9,3.6,69,0.00,,---,0.04,VWS V14.01,2013-01-12 18:56:00,
2013-01-12 14:01:00,42.4,33.0,29.17,ENE,68,0.0,0.0,69,0.00,,---,0.04,VWS V14.01,2013-01-12 19:01:00,
2013-01-12 14:06:00,41.5,31.8,29.17,WNW,292,0.0,0.0,68,0.00,,---,0.04,VWS V14.01,2013-01-12 19:06:00,
2013-01-12 14:11:00,41.2,31.4,29.17,NW,315,2.0,2.0,68,0.00,,---,0.04,VWS V14.01,2013-01-12 19:11:00,
2013-01-12 14:16:00,41.4,31.6,29.17,WNW,292,2.9,2.9,68,0.00,,---,0.04,VWS V14.01,2013-01-12 19:16:00,
2013-01-12 14:21:00,42.1,32.3,29.17,WNW,292,2.0,2.0,68,0.00,,---,0.04,VWS V14.01,2013-01-12 19:21:00,
2013-01-12 14:26:00,42.4,32.6,29.17,SSE,158,0.0,0.0,68,0.00,,---,0.04,VWS V14.01,2013-01-12 19:26:00,
2013-01-12 14:31:00,42.4,32.6,29.17,ESE,112,2.2,5.6,68,0.00,,---,0.04,VWS V14.01,2013-01-12 19:31:00,
2013-01-12 14:36:00,42.3,32.5,29.17,West,270,0.0,0.0,68,0.00,,---,0.04,VWS V14.01,2013-01-12 19:36:00,
2013-01-12 14:41:00,42.1,32.3,29.17,South,180,0.0,0.0,68,0.00,,---,0.04,VWS V14.01,2013-01-12 19:41:00,
2013-01-12 14:46:00,42.3,32.8,29.17,ENE,68,0.0,0.0,69,0.00,,---,0.04,VWS V14.01,2013-01-12 19:46:00,
2013-01-12 14:51:00,41.7,32.0,29.20,ESE,112,2.0,2.0,68,0.00,,---,0.04,VWS V14.01,2013-01-12 19:51:00,
2013-01-12 14:56:00,41.9,32.5,29.20,ESE,112,0.0,0.0,69,0.00,,---,0.04,VWS V14.01,2013-01-12 19:56:00,
2013-01-12 15:00:00,41.7,32.3,29.20,ESE,112,0.0,0.0,69,0.00,,---,0.04,VWS V14.01,2013-01-12 20:00:00,
2013-01-12 15:05:00,41.7,32.3,29.20,SW,225,2.2,2.2,69,0.00,,---,0.04,VWS V14.01,2013-01-12 20:05:00,
2013-01-12 15:10:00,41.7,32.3,29.17,SSE,158,1.6,1.6,69,0.00,,---,0.04,VWS V14.01,2013-01-12 20:10:00,
2013-01-12 15:15:00,41.7,32.3,29.17,South,180,0.9,0.9,69,0.00,,---,0.04,VWS V14.01,2013-01-12 20:15:00,
2013-01-12 15:20:00,41.0,31.6,29.20,South,180,0.9,0.9,69,0.00,,---,0.04,VWS V14.01,2013-01-12 20:20:00,
2013-01-12 15:25:00,41.0,31.6,29.20,SE,135,2.5,2.5,69,0.00,,---,0.04,VWS V14.01,2013-01-12 20:25:00,
2013-01-12 15:30:00,41.0,32.0,29.20,WSW,248,2.0,2.0,70,0.00,,---,0.04,VWS V14.01,2013-01-12 20:30:00,
2013-01-12 15:35:00,40.6,31.6,29.17,SSW,202,1.1,1.1,70,0.00,,---,0.04,VWS V14.01,2013-01-12 20:35:00,
2013-01-12 15:40:00,40.6,32.0,29.17,West,270,1.1,1.1,71,0.00,,---,0.04,VWS V14.01,2013-01-12 20:40:00,
2013-01-12 15:45:00,40.5,31.8,29.17,WNW,292,2.7,2.7,71,0.00,,---,0.04,VWS V14.01,2013-01-12 20:45:00,
2013-01-12 15:50:00,40.1,31.5,29.17,SE,135,3.1,3.1,71,0.00,,---,0.04,VWS V14.01,2013-01-12 20:50:00,
2013-01-12 15:55:00,39.9,31.6,29.17,West,270,2.5,2.5,72,0.00,,---,0.04,VWS V14.01,2013-01-12 20:55:00,
2013-01-12 16:00:00,40.3,32.0,29.17,WNW,292,3.8,3.8,72,0.00,,---,0.04,VWS V14.01,2013-01-12 21:00:00,
2013-01-12 16:05:00,40.1,31.8,29.17,SE,135,2.7,2.7,72,0.00,,---,0.04,VWS V14.01,2013-01-12 21:05:00,
2013-01-12 16:10:00,40.1,32.2,29.17,East,90,3.8,3.8,73,0.00,,---,0.04,VWS V14.01,2013-01-12 21:10:00,
2013-01-12 16:15:00,39.7,31.8,29.17,ESE,112,2.5,2.5,73,0.00,,---,0.04,VWS V14.01,2013-01-12 21:15:00,
2013-01-12 16:20:00,39.7,31.8,29.17,ESE,112,2.5,3.1,73,0.00,,---,0.04,VWS V14.01,2013-01-12 21:20:00,
2013-01-12 16:25:00,39.2,31.3,29.17,ESE,112,2.2,2.2,73,0.00,,---,0.04,VWS V14.01,2013-01-12 21:25:00,
2013-01-12 16:30:00,39.2,31.3,29.17,SSE,158,2.5,2.5,73,0.00,,---,0.04,VWS V14.01,2013-01-12 21:30:00,
2013-01-12 16:35:00,39.4,31.5,29.17,ESE,112,2.7,3.1,73,0.00,,---,0.04,VWS V14.01,2013-01-12 21:35:00,
2013-01-12 16:40:00,39.4,31.5,29.17,SE,135,3.1,3.6,73,0.00,,---,0.04,VWS V14.01,2013-01-12 21:40:00,
2013-01-12 16:45:00,39.4,31.8,29.17,ESE,112,3.6,3.6,74,0.00,,---,0.04,VWS V14.01,2013-01-12 21:45:00,
2013-01-12 16:50:00,39.4,31.8,29.17,ESE,112,1.6,2.5,74,0.00,,---,0.04,VWS V14.01,2013-01-12 21:50:00,
2013-01-12 16:55:00,39.4,31.8,29.17,West,270,4.5,4.5,74,0.00,,---,0.04,VWS V14.01,2013-01-12 21:55:00,
2013-01-12 17:00:00,39.4,32.1,29.17,SE,135,0.9,0.9,75,0.00,,---,0.04,VWS V14.01,2013-01-12 22:00:00,
2013-01-12 17:05:00,39.4,32.1,29.17,ESE,112,2.7,2.7,75,0.00,,---,0.04,VWS V14.01,2013-01-12 22:05:00,
2013-01-12 17:10:00,39.6,32.3,29.17,ENE,68,2.5,2.5,75,0.00,,---,0.04,VWS V14.01,2013-01-12 22:10:00,
2013-01-12 17:15:00,39.6,32.3,29.17,ENE,68,2.2,2.2,75,0.00,,---,0.04,VWS V14.01,2013-01-12 22:15:00,
2013-01-12 17:20:00,39.2,32.0,29.17,South,180,0.0,0.0,75,0.00,,---,0.04,VWS V14.01,2013-01-12 22:20:00,
2013-01-12 17:25:00,38.8,31.9,29.17,ESE,112,2.5,2.5,76,0.00,,---,0.04,VWS V14.01,2013-01-12 22:25:00,
2013-01-12 17:30:00,38.8,31.9,29.17,ESE,112,0.0,0.0,76,0.00,,---,0.04,VWS V14.01,2013-01-12 22:30:00,
2013-01-12 17:35:00,38.5,31.6,29.17,ESE,112,1.1,1.1,76,0.00,,---,0.04,VWS V14.01,2013-01-12 22:35:00,
2013-01-12 17:40:00,38.5,31.6,29.17,SSE,158,1.6,1.6,76,0.00,,---,0.04,VWS V14.01,2013-01-12 22:40:00,
2013-01-12 17:45:00,39.0,32.1,29.17,East,90,5.6,5.6,76,0.00,,---,0.04,VWS V14.01,2013-01-12 22:45:00,
2013-01-12 17:50:00,39.0,32.1,29.17,ENE,68,3.4,4.0,76,0.00,,---,0.04,VWS V14.01,2013-01-12 22:50:00,
2013-01-12 17:55:00,38.8,31.9,29.17,ESE,112,2.0,2.9,76,0.00,,---,0.04,VWS V14.01,2013-01-12 22:55:00,
2013-01-12 18:00:00,38.7,31.8,29.17,SSE,158,2.0,2.7,76,0.00,,---,0.04,VWS V14.01,2013-01-12 23:00:00,
2013-01-12 18:05:00,38.7,32.1,29.20,ESE,112,0.0,0.0,77,0.00,,---,0.04,VWS V14.01,2013-01-12 23:05:00,
2013-01-12 18:10:00,38.7,32.1,29.20,ESE,112,1.3,1.3,77,0.00,,---,0.04,VWS V14.01,2013-01-12 23:10:00,
2013-01-12 18:15:00,38.7,32.1,29.20,ESE,112,2.9,2.9,77,0.00,,---,0.04,VWS V14.01,2013-01-12 23:15:00,
2013-01-12 18:20:00,38.7,32.1,29.20,ESE,112,2.7,3.4,77,0.00,,---,0.04,VWS V14.01,2013-01-12 23:20:00,
2013-01-12 18:25:00,38.5,31.9,29.20,ENE,68,0.0,0.0,77,0.00,,---,0.04,VWS V14.01,2013-01-12 23:25:00,
2013-01-12 18:30:00,38.5,31.9,29.20,ESE,112,2.0,2.7,77,0.00,,---,0.04,VWS V14.01,2013-01-12 23:30:00,
2013-01-12 18:35:00,38.3,31.7,29.17,ESE,112,1.3,1.3,77,0.00,,---,0.04,VWS V14.01,2013-01-12 23:35:00,
2013-01-12 18:40:00,38.3,31.7,29.17,East,90,2.7,2.7,77,0.00,,---,0.04,VWS V14.01,2013-01-12 23:40:00,
2013-01-12 18:45:00,37.8,31.2,29.17,East,90,3.8,3.8,77,0.00,,---,0.04,VWS V14.01,2013-01-12 23:45:00,
2013-01-12 18:50:00,37.9,31.4,29.17,East,90,3.1,3.1,77,0.00,,---,0.04,VWS V14.01,2013-01-12 23:50:00,
2013-01-12 18:55:00,38.3,31.7,29.17,SSW,202,3.8,3.8,77,0.00,,---,0.04,VWS V14.01,2013-01-12 23:55:00,
2013-01-12 19:00:00,38.5,32.2,29.17,ESE,112,3.4,3.4,78,0.00,,---,0.04,VWS V14.01,2013-01-13 00:00:00,
2013-01-12 19:05:00,38.1,31.9,29.17,ENE,68,2.5,2.5,78,0.00,,---,0.04,VWS V14.01,2013-01-13 00:05:00,
2013-01-12 19:10:00,37.9,31.4,29.17,ENE,68,2.5,5.4,77,0.00,,---,0.04,VWS V14.01,2013-01-13 00:10:00,
2013-01-12 19:15:00,37.9,31.7,29.17,ESE,112,2.7,2.9,78,0.00,,---,0.04,VWS V14.01,2013-01-13 00:15:00,
2013-01-12 19:20:00,37.9,31.7,29.17,SE,135,4.9,4.9,78,0.00,,---,0.04,VWS V14.01,2013-01-13 00:20:00,
2013-01-12 19:25:00,37.9,31.7,29.17,SE,135,3.1,3.4,78,0.00,,---,0.04,VWS V14.01,2013-01-13 00:25:00,
2013-01-12 19:30:00,38.1,31.9,29.17,East,90,4.3,4.3,78,0.00,,---,0.04,VWS V14.01,2013-01-13 00:30:00,
2013-01-12 19:35:00,38.1,31.9,29.17,East,90,4.0,4.0,78,0.00,,---,0.04,VWS V14.01,2013-01-13 00:35:00,
2013-01-12 19:40:00,37.6,31.4,29.17,East,90,3.6,3.6,78,0.00,,---,0.04,VWS V14.01,2013-01-13 00:40:00,
2013-01-12 19:45:00,37.9,31.7,29.17,East,90,2.7,2.7,78,0.00,,---,0.04,VWS V14.01,2013-01-13 00:45:00,
2013-01-12 19:50:00,37.9,31.7,29.17,ENE,68,3.4,3.4,78,0.00,,---,0.04,VWS V14.01,2013-01-13 00:50:00,
2013-01-12 19:55:00,37.2,31.0,29.17,ENE,68,1.3,1.3,78,0.00,,---,0.04,VWS V14.01,2013-01-13 00:55:00,
2013-01-12 20:00:00,37.2,31.0,29.17,ENE,68,2.5,2.5,78,0.00,,---,0.04,VWS V14.01,2013-01-13 01:00:00,
2013-01-12 20:05:00,36.7,30.5,29.20,ENE,68,2.5,2.5,78,0.00,,---,0.04,VWS V14.01,2013-01-13 01:05:00,
2013-01-12 20:10:00,36.9,30.6,29.20,ESE,112,1.6,1.6,78,0.00,,---,0.04,VWS V14.01,2013-01-13 01:10:00,
2013-01-12 20:15:00,36.7,30.5,29.20,ENE,68,0.0,1.6,78,0.00,,---,0.04,VWS V14.01,2013-01-13 01:15:00,
2013-01-12 20:20:00,37.0,30.8,29.17,East,90,1.6,2.2,78,0.00,,---,0.04,VWS V14.01,2013-01-13 01:20:00,
2013-01-12 20:25:00,37.4,31.2,29.17,NNE,22,1.6,2.2,78,0.00,,---,0.04,VWS V14.01,2013-01-13 01:25:00,
2013-01-12 20:30:00,37.0,31.1,29.17,East,90,0.0,0.0,79,0.00,,---,0.04,VWS V14.01,2013-01-13 01:30:00,
2013-01-12 20:35:00,36.9,31.0,29.20,ESE,112,1.6,2.0,79,0.00,,---,0.04,VWS V14.01,2013-01-13 01:35:00,
2013-01-12 20:40:00,37.6,31.7,29.20,ENE,68,1.6,2.5,79,0.00,,---,0.04,VWS V14.01,2013-01-13 01:40:00,
2013-01-12 20:45:00,36.7,30.8,29.20,East,90,2.2,2.2,79,0.00,,---,0.04,VWS V14.01,2013-01-13 01:45:00,
2013-01-12 20:50:00,36.7,30.8,29.17,SE,135,2.7,2.7,79,0.00,,---,0.04,VWS V14.01,2013-01-13 01:50:00,
2013-01-12 20:55:00,37.2,31.3,29.17,ENE,68,2.5,2.7,79,0.00,,---,0.04,VWS V14.01,2013-01-13 01:55:00,
2013-01-12 21:00:00,36.7,30.8,29.17,ESE,112,3.1,3.1,79,0.00,,---,0.04,VWS V14.01,2013-01-13 02:00:00,
2013-01-12 21:05:00,37.2,31.3,29.17,ESE,112,3.4,3.4,79,0.00,,---,0.04,VWS V14.01,2013-01-13 02:05:00,
2013-01-12 21:10:00,37.4,31.5,29.17,ESE,112,4.0,4.0,79,0.00,,---,0.04,VWS V14.01,2013-01-13 02:10:00,
2013-01-12 21:15:00,37.2,31.6,29.17,ESE,112,2.0,2.0,80,0.00,,---,0.04,VWS V14.01,2013-01-13 02:15:00,
2013-01-12 21:20:00,37.4,31.5,29.17,East,90,2.5,2.5,79,0.00,,---,0.04,VWS V14.01,2013-01-13 02:20:00,
2013-01-12 21:25:00,37.0,31.1,29.17,ESE,112,1.3,1.3,79,0.00,,---,0.04,VWS V14.01,2013-01-13 02:25:00,
2013-01-12 21:30:00,36.9,31.3,29.17,ESE,112,1.6,1.6,80,0.00,,---,0.04,VWS V14.01,2013-01-13 02:30:00,
2013-01-12 21:35:00,37.2,31.6,29.17,East,90,0.0,2.5,80,0.00,,---,0.04,VWS V14.01,2013-01-13 02:35:00,
2013-01-12 21:40:00,37.4,31.8,29.17,SE,135,2.5,2.5,80,0.00,,---,0.04,VWS V14.01,2013-01-13 02:40:00,
2013-01-12 21:45:00,37.0,31.5,29.17,ESE,112,0.0,1.1,80,0.00,,---,0.04,VWS V14.01,2013-01-13 02:45:00,
2013-01-12 21:50:00,37.0,31.5,29.17,ESE,112,0.9,2.0,80,0.00,,---,0.04,VWS V14.01,2013-01-13 02:50:00,
2013-01-12 21:55:00,36.7,31.1,29.17,ENE,68,0.0,0.0,80,0.00,,---,0.04,VWS V14.01,2013-01-13 02:55:00,
2013-01-12 22:00:00,36.3,30.8,29.17,ENE,68,0.0,0.0,80,0.00,,---,0.04,VWS V14.01,2013-01-13 03:00:00,
2013-01-12 22:05:00,36.0,30.1,29.20,ENE,68,0.0,0.0,79,0.00,,---,0.04,VWS V14.01,2013-01-13 03:05:00,
2013-01-12 22:10:00,35.8,29.9,29.20,ENE,68,0.0,0.0,79,0.00,,---,0.04,VWS V14.01,2013-01-13 03:10:00,
2013-01-12 22:15:00,35.8,29.9,29.20,ENE,68,0.0,0.0,79,0.00,,---,0.04,VWS V14.01,2013-01-13 03:15:00,
2013-01-12 22:20:00,35.6,29.7,29.20,ENE,68,0.0,0.0,79,0.00,,---,0.04,VWS V14.01,2013-01-13 03:20:00,
2013-01-12 22:25:00,35.4,29.9,29.20,ENE,68,0.0,0.0,80,0.00,,---,0.04,VWS V14.01,2013-01-13 03:25:00,
2013-01-12 22:30:00,35.2,29.7,29.20,NE,45,0.0,0.0,80,0.00,,---,0.04,VWS V14.01,2013-01-13 03:30:00,
2013-01-12 22:35:00,35.2,29.7,29.23,NE,45,0.0,0.0,80,0.00,,---,0.04,VWS V14.01,2013-01-13 03:35:00,
2013-01-12 22:40:00,35.2,29.7,29.23,NE,45,0.0,0.0,80,0.00,,---,0.04,VWS V14.01,2013-01-13 03:40:00,
2013-01-12 22:45:00,35.2,29.7,29.23,NE,45,0.0,0.0,80,0.00,,---,0.04,VWS V14.01,2013-01-13 03:45:00,
2013-01-12 22:50:00,35.2,29.4,29.23,NE,45,0.0,0.0,79,0.00,,---,0.04,VWS V14.01,2013-01-13 03:50:00,
2013-01-12 22:55:00,35.1,29.2,29.23,NE,45,0.0,0.0,79,0.00,,---,0.04,VWS V14.01,2013-01-13 03:55:00,
2013-01-12 23:00:00,35.2,29.7,29.23,ENE,68,0.0,0.0,80,0.00,,---,0.04,VWS V14.01,2013-01-13 04:00:00,
2013-01-12 23:05:00,35.1,29.5,29.20,ENE,68,0.0,0.0,80,0.00,,---,0.04,VWS V14.01,2013-01-13 04:05:00,
2013-01-12 23:10:00,35.4,29.9,29.20,ENE,68,0.0,0.0,80,0.00,,---,0.04,VWS V14.01,2013-01-13 04:10:00,
2013-01-12 23:15:00,35.1,29.5,29.20,ENE,68,0.0,0.0,80,0.00,,---,0.04,VWS V14.01,2013-01-13 04:15:00,
2013-01-12 23:20:00,35.4,29.9,29.20,ENE,68,0.0,0.0,80,0.00,,---,0.04,VWS V14.01,2013-01-13 04:20:00,
2013-01-12 23:25:00,35.4,30.2,29.20,ENE,68,0.0,0.0,81,0.00,,---,0.04,VWS V14.01,2013-01-13 04:25:00,
2013-01-12 23:30:00,36.0,30.7,29.20,East,90,0.0,0.0,81,0.00,,---,0.04,VWS V14.01,2013-01-13 04:30:00,
2013-01-12 23:35:00,35.6,30.0,29.20,ESE,112,0.0,0.0,80,0.00,,---,0.04,VWS V14.01,2013-01-13 04:35:00,
2013-01-12 23:40:00,36.0,30.7,29.20,ENE,68,0.0,0.0,81,0.00,,---,0.04,VWS V14.01,2013-01-13 04:40:00,
2013-01-12 23:45:00,36.0,30.7,29.20,ENE,68,0.0,0.0,81,0.00,,---,0.04,VWS V14.01,2013-01-13 04:45:00,
2013-01-12 23:50:00,35.8,30.5,29.20,ENE,68,0.0,0.0,81,0.00,,---,0.04,VWS V14.01,2013-01-13 04:50:00,
2013-01-12 23:55:00,35.8,30.5,29.20,East,90,0.0,0.0,81,0.00,,---,0.04,VWS V14.01,2013-01-13 04:55:00,